Latest Coastal Weather Observations for Ngayawili (Elcho Island)

IDD60701

Issued at 12:21 pm CST Monday 30 May 2016 (issued every 10 minutes, with the page automatically refreshed every 10 minutes)

About coastal observations | Map of coastal stations | Coastal observations for NT | Marine services | Other Formats
Station Details ID: 014517 Name: NGAYAWILI Lat: -12.00 Lon: 135.57 Height: 8.1 m
Data from the previous 72 hours. | See also: Recent months at Ngayawili (Elcho Island)
Date/Time
CST
Temp

°C
Wind Pressure Rain
since 9am
mm
Weather Cloud Vis
km
Sea
Height
m
Swell
Dir
 
Speed
knots
Gust
knots
hPa Trend Height
m
Period
s
Dir
30/12:00pm 30.4 ESE 10 17 1012.8 - 0.0 - - - - - - -
30/11:30am 30.1 E 8 14 1013.3 - 0.0 - - - - - - -
30/11:00am 30.8 E 10 15 1013.5 - 0.0 - - - - - - -
30/10:30am 30.0 ESE 10 15 1013.7 - 0.0 - - - - - - -
30/10:00am 29.9 E 10 15 1013.9 - 0.0 - - - - - - -
30/09:30am 29.4 E 8 12 1014.0 - 0.0 - - - - - - -
30/09:00am 28.7 E 7 10 1014.0 - 0.0 - - - - - - -
30/08:30am 28.0 E 6 9 1013.8 - 0.0 - - - - - - -
30/08:00am 26.9 ESE 5 9 1013.6 - 0.0 - - - - - - -
30/07:30am 25.8 ESE 4 6 1013.4 - 0.0 - - - - - - -
30/07:00am 25.2 ESE 4 6 1012.8 - 0.0 - - - - - - -
30/06:30am 25.0 ESE 4 6 1012.7 - 0.0 - - - - - - -
30/06:00am 25.1 ESE 4 5 1012.3 - 0.0 - - - - - - -
30/05:30am 24.8 SE 4 5 1012.1 - 0.0 - - - - - - -
30/05:00am 24.9 SE 4 5 1012.0 - 0.0 - - - - - - -
30/04:30am 25.1 ESE 4 5 1012.1 - 0.0 - - - - - - -
30/04:00am 25.4 SE 4 6 1012.1 - 0.0 - - - - - - -
30/03:30am 25.6 ESE 4 5 1012.1 - 0.0 - - - - - - -
30/03:00am 25.6 SSE 3 5 1012.4 - 0.0 - - - - - - -
30/02:30am 25.9 ESE 4 6 1012.5 - 0.0 - - - - - - -
30/02:00am 26.2 E 4 6 1012.5 - 0.0 - - - - - - -
30/01:30am 26.4 ESE 5 7 1012.6 - 0.0 - - - - - - -
30/01:00am 26.5 ESE 5 8 1013.0 - 0.0 - - - - - - -
30/12:30am 26.5 ESE 5 7 1013.1 - 0.0 - - - - - - -
30/12:00am 26.5 E 5 7 1013.3 - 0.0 - - - - - - -
 
Date/Time
CST
Temp

°C
Wind Pressure Rain
since 9am
mm
Weather Cloud Vis
km
Sea
Height
m
Swell
Dir
 
Speed
knots
Gust
knots
hPa Trend Height
m
Period
s
Dir
29/11:30pm 26.7 E 5 7 1013.3 - 0.0 - - - - - - -
29/11:00pm 26.8 ESE 5 7 1013.8 - 0.0 - - - - - - -
29/10:30pm 26.7 ESE 5 7 1013.8 - 0.0 - - - - - - -
29/10:00pm 26.6 ESE 5 6 1013.8 - 0.0 - - - - - - -
29/09:30pm 25.7 E 3 5 1013.7 - 0.0 - - - - - - -
29/09:00pm 26.2 E 3 4 1013.5 - 0.0 - - - - - - -
29/08:30pm 26.7 ENE 4 5 1013.2 - 0.0 - - - - - - -
29/08:00pm 27.1 E 4 5 1012.9 - 0.0 - - - - - - -
29/07:30pm 27.3 ENE 4 5 1012.6 - 0.0 - - - - - - -
29/07:00pm 27.8 E 4 6 1012.3 - 0.0 - - - - - - -
29/06:30pm 28.1 E 4 6 1011.9 - 0.0 - - - - - - -
29/06:00pm 28.8 E 6 8 1011.8 - 0.0 - - - - - - -
29/05:30pm 29.6 E 5 8 1011.5 - 0.0 - - - - - - -
29/05:00pm 30.1 E 6 9 1011.2 - 0.0 - - - - - - -
29/04:30pm 30.6 E 5 9 1011.0 - 0.0 - - - - - - -
29/04:00pm 30.7 E 8 11 1010.9 - 0.0 - - - - - - -
29/03:30pm 31.0 ESE 9 14 1010.9 - 0.0 - - - - - - -
29/03:00pm 31.4 ENE 5 9 1011.0 - 0.0 - - - - - - -
29/02:30pm 31.6 E 7 12 1011.1 - 0.0 - - - - - - -
29/02:00pm 32.5 E 6 11 1011.4 - 0.0 - - - - - - -
29/01:30pm 31.8 E 7 11 1011.8 - 0.0 - - - - - - -
29/01:00pm 31.9 ENE 8 13 1012.3 - 0.0 - - - - - - -
29/12:30pm 31.8 SE 8 13 1012.7 - 0.0 - - - - - - -
29/12:00pm 31.5 E 8 12 1013.2 - 0.0 - - - - - - -
29/11:30am 31.0 ESE 7 11 1013.5 - 0.0 - - - - - - -
29/11:00am 30.3 E 7 12 1013.9 - 0.0 - - - - - - -
29/10:30am 30.9 ESE 6 11 1014.1 - 0.0 - - - - - - -
29/10:00am 29.8 ESE 6 10 1014.1 - 0.0 - - - - - - -
29/09:30am 29.2 ESE 7 10 1014.0 - 0.0 - - - - - - -
29/09:00am 28.7 ESE 7 11 1014.0 - 0.0 - - - - - - -
29/08:30am 27.5 ESE 7 11 1013.7 - 0.0 - - - - - - -
29/08:00am 26.6 SE 6 8 1013.4 - 0.0 - - - - - - -
29/07:30am 25.4 ESE 5 6 1013.1 - 0.0 - - - - - - -
29/07:00am 24.9 ESE 5 6 1013.0 - 0.0 - - - - - - -
29/06:30am 24.7 ESE 5 6 1012.5 - 0.0 - - - - - - -
29/06:00am 24.7 SE 5 6 1012.3 - 0.0 - - - - - - -
29/05:30am 24.8 ESE 4 5 1012.0 - 0.0 - - - - - - -
29/05:00am 24.4 SE 5 6 1011.8 - 0.0 - - - - - - -
29/04:30am 24.6 ESE 5 6 1011.7 - 0.0 - - - - - - -
29/04:00am 24.4 ESE 5 6 1011.7 - 0.0 - - - - - - -
29/03:30am 24.4 ESE 4 5 1011.8 - 0.0 - - - - - - -
29/03:00am 24.2 ESE 4 5 1011.6 - 0.0 - - - - - - -
29/02:30am 25.0 ESE 4 5 1011.7 - 0.0 - - - - - - -
29/02:00am 25.3 ESE 4 5 1011.8 - 0.0 - - - - - - -
29/01:30am 24.5 ESE 4 5 1011.9 - 0.0 - - - - - - -
29/01:00am 24.8 ESE 4 4 1012.2 - 0.0 - - - - - - -
29/12:30am 25.2 ESE 4 5 1012.4 - 0.0 - - - - - - -
29/12:00am 25.9 E 4 6 1012.4 - 0.0 - - - - - - -
 
Date/Time
CST
Temp

°C
Wind Pressure Rain
since 9am
mm
Weather Cloud Vis
km
Sea
Height
m
Swell
Dir
 
Speed
knots
Gust
knots
hPa Trend Height
m
Period
s
Dir
28/11:30pm 25.8 E 4 5 1012.6 - 0.0 - - - - - - -
28/11:00pm 26.0 E 4 5 1012.8 - 0.0 - - - - - - -
28/10:30pm 26.0 E 4 5 1012.7 - 0.0 - - - - - - -
28/10:00pm 26.1 E 5 7 1012.5 - 0.0 - - - - - - -
28/09:30pm 26.4 ENE 5 8 1012.4 - 0.0 - - - - - - -
28/09:00pm 26.3 E 5 6 1012.3 - 0.0 - - - - - - -
28/08:30pm 26.5 E 4 5 1012.4 - 0.0 - - - - - - -
28/08:00pm 26.9 ENE 5 7 1012.1 - 0.0 - - - - - - -
28/07:30pm 27.0 ENE 5 6 1011.8 - 0.0 - - - - - - -
28/07:00pm 27.3 ENE 5 7 1011.4 - 0.0 - - - - - - -
28/06:30pm 27.6 NE 5 6 1011.2 - 0.0 - - - - - - -
28/06:00pm 28.6 NE 5 8 1011.1 - 0.0 - - - - - - -
28/05:30pm 29.2 NE 7 9 1010.7 - 0.0 - - - - - - -
28/05:00pm 30.0 NNE 9 11 1010.4 - 0.0 - - - - - - -
28/04:30pm 30.5 NNE 9 11 1010.5 - 0.0 - - - - - - -
28/04:00pm 30.5 N 11 13 1010.4 - 0.0 - - - - - - -
28/03:30pm 30.6 N 11 12 1010.7 - 0.0 - - - - - - -
28/03:00pm 30.9 N 10 12 1010.8 - 0.0 - - - - - - -
28/02:30pm 30.7 N 11 12 1011.0 - 0.0 - - - - - - -
28/02:00pm 30.7 N 11 13 1011.1 - 0.0 - - - - - - -
28/01:30pm 30.9 N 11 13 1011.6 - 0.0 - - - - - - -
28/01:00pm 30.8 N 11 14 1012.1 - 0.0 - - - - - - -
28/12:30pm 30.7 N 11 13 1012.5 - 0.0 - - - - - - -
28/12:00pm 30.2 NNW 7 8 1013.0 - 0.0 - - - - - - -
28/11:30am 29.8 N 6 8 1013.4 - 0.0 - - - - - - -
28/11:00am 29.0 NNW 5 6 1013.9 - 0.0 - - - - - - -
28/10:30am 29.5 NNW 4 5 1014.0 - 0.0 - - - - - - -
28/10:00am 28.7 W 4 5 1014.2 - 0.0 - - - - - - -
28/09:30am 28.8 NNW 4 5 1014.5 - 0.0 - - - - - - -
28/09:00am 28.6 SE 2 4 1014.5 - 0.0 - - - - - - -
28/08:30am 27.4 E 3 4 1014.4 - 0.0 - - - - - - -
28/08:00am 26.0 ESE 5 6 1014.2 - 0.0 - - - - - - -
28/07:30am 24.5 SE 5 6 1013.9 - 0.0 - - - - - - -
28/07:00am 23.0 ESE 4 5 1013.4 - 0.0 - - - - - - -
28/06:30am 22.8 SE 4 5 1013.1 - 0.0 - - - - - - -
28/06:00am 23.5 SE 5 6 1012.7 - 0.0 - - - - - - -
28/05:30am 23.6 SE 5 6 1012.5 - 0.0 - - - - - - -
28/05:00am 23.5 SE 6 6 1012.5 - 0.0 - - - - - - -
28/04:30am 23.2 ESE 4 5 1012.2 - 0.0 - - - - - - -
28/04:00am 23.6 SE 4 5 1012.0 - 0.0 - - - - - - -
28/03:30am 23.2 ESE 4 4 1011.8 - 0.0 - - - - - - -
28/03:00am 23.6 SE 5 5 1011.7 - 0.0 - - - - - - -
28/02:30am 23.7 ESE 4 5 1011.9 - 0.0 - - - - - - -
28/02:00am 23.7 ESE 5 5 1012.0 - 0.0 - - - - - - -
28/01:30am 23.6 E 4 5 1012.1 - 0.0 - - - - - - -
28/01:00am 24.0 ESE 4 5 1012.3 - 0.0 - - - - - - -
28/12:30am 24.1 ESE 4 5 1012.1 - 0.0 - - - - - - -
28/12:00am 24.6 E 4 4 1012.3 - 0.0 - - - - - - -
 
Date/Time
CST
Temp

°C
Wind Pressure Rain
since 9am
mm
Weather Cloud Vis
km
Sea
Height
m
Swell
Dir
 
Speed
knots
Gust
knots
hPa Trend Height
m
Period
s
Dir
27/11:30pm 25.3 E 5 6 1012.4 - 0.0 - - - - - - -
27/11:00pm 24.8 E 4 5 1012.8 - 0.0 - - - - - - -
27/10:30pm 25.3 E 5 5 1012.8 - 0.0 - - - - - - -
27/10:00pm 25.7 ENE 5 6 1012.8 - 0.0 - - - - - - -
27/09:30pm 26.3 ENE 5 6 1012.8 - 0.0 - - - - - - -
27/09:00pm 26.8 NE 5 8 1012.8 - 0.0 - - - - - - -
27/08:30pm 28.4 N 8 10 1012.5 - 0.0 - - - - - - -
27/08:00pm 27.7 N 6 8 1012.4 - 0.0 - - - - - - -
27/07:30pm 28.4 N 7 8 1012.2 - 0.0 - - - - - - -
27/07:00pm 28.6 N 7 8 1012.0 - 0.0 - - - - - - -
27/06:30pm 28.5 N 6 7 1011.7 - 0.0 - - - - - - -
27/06:00pm 28.9 N 7 8 1011.5 - 0.0 - - - - - - -
27/05:30pm 29.5 N 7 9 1011.3 - 0.0 - - - - - - -
27/05:00pm 29.8 N 8 9 1011.1 - 0.0 - - - - - - -
27/04:30pm 29.7 N 8 9 1010.8 - 0.0 - - - - - - -
27/04:00pm 30.2 N 7 9 1010.7 - 0.0 - - - - - - -
27/03:30pm 30.3 NNW 7 8 1011.0 - 0.0 - - - - - - -
27/03:00pm 30.6 NW 6 7 1011.3 - 0.0 - - - - - - -
27/02:30pm 30.7 NW 8 9 1011.5 - 0.0 - - - - - - -
27/02:00pm 30.9 NW 8 9 1011.7 - 0.0 - - - - - - -
27/01:30pm 30.6 NW 9 10 1012.1 - 0.0 - - - - - - -
27/01:00pm 30.9 NW 8 9 1012.6 - 0.0 - - - - - - -
27/12:30pm 30.3 NW 6 8 1013.0 - 0.0 - - - - - - -

Other Formats:

Comma delimited format used in spreadsheet applications
http://www.bom.gov.au/fwo/IDD60701/IDD60701.95146.axf

JavaScript Object Notation format (JSON) in row-major order
http://www.bom.gov.au/fwo/IDD60701/IDD60701.95146.json